sensor_id;sensor_type;location;lat;lon;timestamp;P1;durP1;ratioP1;P2;durP2;ratioP2
51800;SDS011;37855;53.204;6.568;2022-10-31T11:28:02;28.88;;;14.00;;
51800;SDS011;37855;53.204;6.568;2022-10-31T11:30:29;21.05;;;13.70;;
51800;SDS011;37855;53.204;6.568;2022-10-31T11:33:00;18.88;;;12.07;;
51800;SDS011;37855;53.204;6.568;2022-10-31T11:35:27;18.45;;;12.23;;
51800;SDS011;37855;53.204;6.568;2022-10-31T11:38:04;21.98;;;13.10;;
51800;SDS011;37855;53.204;6.568;2022-10-31T11:40:33;16.92;;;11.68;;
51800;SDS011;37855;53.204;6.568;2022-10-31T11:42:59;16.55;;;11.05;;
51800;SDS011;37855;53.204;6.568;2022-10-31T11:47:56;18.00;;;10.85;;
51800;SDS011;37855;53.204;6.568;2022-10-31T11:50:41;16.85;;;10.75;;
51800;SDS011;37855;53.204;6.568;2022-10-31T11:53:16;15.57;;;9.90;;
51800;SDS011;37855;53.204;6.568;2022-10-31T11:55:44;18.60;;;10.05;;
51800;SDS011;37855;53.204;6.568;2022-10-31T11:58:23;20.42;;;9.75;;
51800;SDS011;37855;53.204;6.568;2022-10-31T12:00:51;16.55;;;10.20;;
51800;SDS011;37855;53.204;6.568;2022-10-31T12:08:41;13.20;;;8.20;;
51800;SDS011;37855;53.204;6.568;2022-10-31T12:13:39;16.98;;;8.20;;
51800;SDS011;37855;53.204;6.568;2022-10-31T12:16:18;15.60;;;8.00;;
51800;SDS011;37855;53.204;6.568;2022-10-31T12:18:58;13.60;;;8.38;;
51800;SDS011;37855;53.204;6.568;2022-10-31T12:22:18;14.82;;;8.50;;
51800;SDS011;37855;53.204;6.568;2022-10-31T12:31:22;15.60;;;9.10;;
51800;SDS011;37855;53.204;6.568;2022-10-31T12:43:04;15.85;;;8.32;;
51800;SDS011;37855;53.204;6.568;2022-10-31T12:45:54;18.27;;;9.48;;
51800;SDS011;37855;53.204;6.568;2022-10-31T12:48:33;19.98;;;9.77;;
51800;SDS011;37855;53.204;6.568;2022-10-31T12:54:29;13.70;;;8.38;;
51800;SDS011;37855;53.204;6.568;2022-10-31T12:59:51;16.25;;;7.80;;
51800;SDS011;37855;53.204;6.568;2022-10-31T13:05:36;16.17;;;7.05;;
51800;SDS011;37855;53.204;6.568;2022-10-31T13:08:19;17.38;;;7.57;;
51800;SDS011;37855;53.204;6.568;2022-10-31T13:11:09;14.75;;;7.28;;
51800;SDS011;37855;53.204;6.568;2022-10-31T13:16:39;21.58;;;7.80;;
51800;SDS011;37855;53.204;6.568;2022-10-31T13:27:17;16.65;;;6.20;;
51800;SDS011;37855;53.204;6.568;2022-10-31T13:30:03;12.52;;;6.18;;
51800;SDS011;37855;53.204;6.568;2022-10-31T13:33:13;19.88;;;6.43;;
51800;SDS011;37855;53.204;6.568;2022-10-31T13:35:43;13.93;;;6.05;;
51800;SDS011;37855;53.204;6.568;2022-10-31T13:38:25;16.95;;;6.25;;
51800;SDS011;37855;53.204;6.568;2022-10-31T13:41:04;17.50;;;6.20;;
51800;SDS011;37855;53.204;6.568;2022-10-31T13:43:58;19.70;;;7.05;;
51800;SDS011;37855;53.204;6.568;2022-10-31T13:46:26;14.57;;;7.28;;
51800;SDS011;37855;53.204;6.568;2022-10-31T13:48:59;13.88;;;6.38;;
51800;SDS011;37855;53.204;6.568;2022-10-31T13:51:39;16.15;;;7.05;;
51800;SDS011;37855;53.204;6.568;2022-10-31T13:54:30;15.32;;;6.38;;
51800;SDS011;37855;53.204;6.568;2022-10-31T13:56:59;12.95;;;6.60;;
51800;SDS011;37855;53.204;6.568;2022-10-31T13:59:25;12.90;;;6.20;;
51800;SDS011;37855;53.204;6.568;2022-10-31T14:01:57;12.80;;;6.18;;
51800;SDS011;37855;53.204;6.568;2022-10-31T14:04:48;12.88;;;6.10;;
51800;SDS011;37855;53.204;6.568;2022-10-31T14:07:18;11.13;;;5.97;;
51800;SDS011;37855;53.204;6.568;2022-10-31T14:09:53;18.38;;;6.65;;
51800;SDS011;37855;53.204;6.568;2022-10-31T14:15:14;18.00;;;6.90;;
51800;SDS011;37855;53.204;6.568;2022-10-31T14:17:47;20.90;;;6.82;;
51800;SDS011;37855;53.204;6.568;2022-10-31T14:20:25;21.20;;;7.63;;
51800;SDS011;37855;53.204;6.568;2022-10-31T14:25:36;18.02;;;7.03;;
51800;SDS011;37855;53.204;6.568;2022-10-31T14:28:06;17.27;;;7.78;;
51800;SDS011;37855;53.204;6.568;2022-10-31T14:30:51;16.30;;;7.10;;
51800;SDS011;37855;53.204;6.568;2022-10-31T14:33:19;17.02;;;7.47;;
51800;SDS011;37855;53.204;6.568;2022-10-31T14:35:58;19.33;;;8.27;;
51800;SDS011;37855;53.204;6.568;2022-10-31T14:38:38;26.23;;;8.38;;
51800;SDS011;37855;53.204;6.568;2022-10-31T14:52:51;21.08;;;8.48;;
51800;SDS011;37855;53.204;6.568;2022-10-31T14:55:21;23.85;;;9.00;;
51800;SDS011;37855;53.204;6.568;2022-10-31T14:57:58;24.05;;;8.80;;
51800;SDS011;37855;53.204;6.568;2022-10-31T15:00:26;23.98;;;8.95;;
51800;SDS011;37855;53.204;6.568;2022-10-31T15:05:32;23.40;;;8.13;;
51800;SDS011;37855;53.204;6.568;2022-10-31T15:08:00;22.00;;;8.88;;
51800;SDS011;37855;53.204;6.568;2022-10-31T15:10:36;28.33;;;8.40;;
51800;SDS011;37855;53.204;6.568;2022-10-31T15:13:09;21.30;;;8.50;;
51800;SDS011;37855;53.204;6.568;2022-10-31T15:15:36;18.10;;;8.27;;
51800;SDS011;37855;53.204;6.568;2022-10-31T15:18:03;15.27;;;8.23;;
51800;SDS011;37855;53.204;6.568;2022-10-31T15:20:37;20.10;;;8.52;;
51800;SDS011;37855;53.204;6.568;2022-10-31T15:23:09;19.48;;;8.48;;
51800;SDS011;37855;53.204;6.568;2022-10-31T15:25:36;18.88;;;8.57;;
51800;SDS011;37855;53.204;6.568;2022-10-31T15:28:12;19.08;;;8.98;;
51800;SDS011;37855;53.204;6.568;2022-10-31T15:30:54;18.77;;;8.38;;
51800;SDS011;37855;53.204;6.568;2022-10-31T15:33:28;22.15;;;8.73;;
51800;SDS011;37855;53.204;6.568;2022-10-31T15:36:04;20.40;;;8.55;;
51800;SDS011;37855;53.204;6.568;2022-10-31T15:38:37;21.35;;;9.20;;
51800;SDS011;37855;53.204;6.568;2022-10-31T15:41:03;18.52;;;9.80;;
51800;SDS011;37855;53.204;6.568;2022-10-31T15:43:44;18.30;;;9.73;;
51800;SDS011;37855;53.204;6.568;2022-10-31T15:46:13;21.02;;;10.18;;
51800;SDS011;37855;53.204;6.568;2022-10-31T15:48:53;18.70;;;10.60;;
51800;SDS011;37855;53.204;6.568;2022-10-31T15:51:26;19.05;;;10.70;;
51800;SDS011;37855;53.204;6.568;2022-10-31T15:53:56;22.90;;;11.38;;
51800;SDS011;37855;53.204;6.568;2022-10-31T15:56:25;23.80;;;10.75;;
51800;SDS011;37855;53.204;6.568;2022-10-31T15:58:56;28.33;;;12.55;;
51800;SDS011;37855;53.204;6.568;2022-10-31T16:01:25;22.05;;;11.85;;
51800;SDS011;37855;53.204;6.568;2022-10-31T16:06:59;24.73;;;11.15;;
51800;SDS011;37855;53.204;6.568;2022-10-31T16:09:49;21.75;;;11.98;;
51800;SDS011;37855;53.204;6.568;2022-10-31T16:12:20;24.00;;;11.63;;
51800;SDS011;37855;53.204;6.568;2022-10-31T16:15:00;23.25;;;11.85;;
51800;SDS011;37855;53.204;6.568;2022-10-31T16:17:26;22.02;;;11.77;;
51800;SDS011;37855;53.204;6.568;2022-10-31T16:19:58;28.05;;;13.13;;
51800;SDS011;37855;53.204;6.568;2022-10-31T16:22:29;21.38;;;11.48;;
51800;SDS011;37855;53.204;6.568;2022-10-31T16:27:36;19.42;;;11.70;;
51800;SDS011;37855;53.204;6.568;2022-10-31T16:30:28;22.05;;;11.43;;
51800;SDS011;37855;53.204;6.568;2022-10-31T16:32:55;23.70;;;11.93;;
51800;SDS011;37855;53.204;6.568;2022-10-31T16:35:34;21.23;;;11.27;;
51800;SDS011;37855;53.204;6.568;2022-10-31T16:38:03;21.70;;;11.32;;
51800;SDS011;37855;53.204;6.568;2022-10-31T16:40:29;17.92;;;10.43;;
51800;SDS011;37855;53.204;6.568;2022-10-31T16:42:57;19.13;;;10.98;;
51800;SDS011;37855;53.204;6.568;2022-10-31T16:45:25;21.45;;;10.63;;
51800;SDS011;37855;53.204;6.568;2022-10-31T16:47:52;20.30;;;10.52;;
51800;SDS011;37855;53.204;6.568;2022-10-31T16:50:22;20.10;;;10.95;;
51800;SDS011;37855;53.204;6.568;2022-10-31T16:52:50;19.90;;;10.55;;
51800;SDS011;37855;53.204;6.568;2022-10-31T16:55:16;18.42;;;10.40;;
51800;SDS011;37855;53.204;6.568;2022-10-31T16:57:52;18.70;;;10.52;;
51800;SDS011;37855;53.204;6.568;2022-10-31T17:00:22;15.52;;;9.55;;
51800;SDS011;37855;53.204;6.568;2022-10-31T17:02:52;19.15;;;10.02;;
51800;SDS011;37855;53.204;6.568;2022-10-31T17:05:24;17.13;;;9.50;;
51800;SDS011;37855;53.204;6.568;2022-10-31T17:07:57;17.45;;;9.95;;
51800;SDS011;37855;53.204;6.568;2022-10-31T17:10:24;18.33;;;10.68;;
51800;SDS011;37855;53.204;6.568;2022-10-31T17:12:51;18.77;;;10.07;;
51800;SDS011;37855;53.204;6.568;2022-10-31T17:17:44;19.23;;;11.05;;
51800;SDS011;37855;53.204;6.568;2022-10-31T17:20:20;21.27;;;11.48;;
51800;SDS011;37855;53.204;6.568;2022-10-31T17:22:49;18.95;;;11.45;;
51800;SDS011;37855;53.204;6.568;2022-10-31T17:25:26;18.80;;;12.18;;
51800;SDS011;37855;53.204;6.568;2022-10-31T17:27:58;20.08;;;11.93;;
51800;SDS011;37855;53.204;6.568;2022-10-31T17:30:24;17.67;;;12.18;;
51800;SDS011;37855;53.204;6.568;2022-10-31T17:32:53;21.80;;;13.15;;
51800;SDS011;37855;53.204;6.568;2022-10-31T17:35:20;23.33;;;14.63;;
51800;SDS011;37855;53.204;6.568;2022-10-31T17:37:46;21.15;;;13.48;;
51800;SDS011;37855;53.204;6.568;2022-10-31T17:40:13;21.80;;;13.65;;
51800;SDS011;37855;53.204;6.568;2022-10-31T17:42:41;25.45;;;15.00;;
51800;SDS011;37855;53.204;6.568;2022-10-31T17:45:07;25.05;;;14.95;;
51800;SDS011;37855;53.204;6.568;2022-10-31T17:47:34;24.80;;;15.13;;
51800;SDS011;37855;53.204;6.568;2022-10-31T17:50:00;27.63;;;17.38;;
51800;SDS011;37855;53.204;6.568;2022-10-31T17:52:26;25.02;;;16.35;;
51800;SDS011;37855;53.204;6.568;2022-10-31T17:54:52;25.35;;;17.48;;
51800;SDS011;37855;53.204;6.568;2022-10-31T17:57:20;28.27;;;17.73;;
51800;SDS011;37855;53.204;6.568;2022-10-31T17:59:46;29.52;;;20.40;;
51800;SDS011;37855;53.204;6.568;2022-10-31T18:02:12;28.77;;;18.77;;
51800;SDS011;37855;53.204;6.568;2022-10-31T18:04:38;31.40;;;20.13;;
51800;SDS011;37855;53.204;6.568;2022-10-31T18:07:05;33.40;;;20.92;;
51800;SDS011;37855;53.204;6.568;2022-10-31T18:09:33;33.63;;;21.75;;
51800;SDS011;37855;53.204;6.568;2022-10-31T18:12:00;30.70;;;21.20;;
51800;SDS011;37855;53.204;6.568;2022-10-31T18:14:26;36.28;;;22.25;;
51800;SDS011;37855;53.204;6.568;2022-10-31T18:16:53;34.55;;;22.90;;
51800;SDS011;37855;53.204;6.568;2022-10-31T18:19:19;37.47;;;23.58;;
51800;SDS011;37855;53.204;6.568;2022-10-31T18:21:45;36.75;;;23.75;;
51800;SDS011;37855;53.204;6.568;2022-10-31T18:24:11;42.45;;;25.20;;
51800;SDS011;37855;53.204;6.568;2022-10-31T18:26:41;38.58;;;25.02;;
51800;SDS011;37855;53.204;6.568;2022-10-31T18:29:08;38.13;;;25.90;;
51800;SDS011;37855;53.204;6.568;2022-10-31T18:31:35;39.35;;;25.40;;
51800;SDS011;37855;53.204;6.568;2022-10-31T18:34:04;41.28;;;25.10;;
51800;SDS011;37855;53.204;6.568;2022-10-31T18:36:53;43.40;;;26.63;;
51800;SDS011;37855;53.204;6.568;2022-10-31T18:39:19;45.10;;;25.90;;
51800;SDS011;37855;53.204;6.568;2022-10-31T18:42:11;44.92;;;27.38;;
51800;SDS011;37855;53.204;6.568;2022-10-31T18:44:37;42.25;;;26.52;;
51800;SDS011;37855;53.204;6.568;2022-10-31T18:47:02;46.60;;;27.05;;
51800;SDS011;37855;53.204;6.568;2022-10-31T18:49:28;47.67;;;27.40;;
51800;SDS011;37855;53.204;6.568;2022-10-31T18:51:56;46.63;;;27.10;;
51800;SDS011;37855;53.204;6.568;2022-10-31T18:54:24;44.63;;;28.63;;
51800;SDS011;37855;53.204;6.568;2022-10-31T18:56:49;43.72;;;27.60;;
51800;SDS011;37855;53.204;6.568;2022-10-31T18:59:16;45.63;;;28.77;;
51800;SDS011;37855;53.204;6.568;2022-10-31T19:01:43;50.33;;;31.80;;
51800;SDS011;37855;53.204;6.568;2022-10-31T19:04:10;53.67;;;31.65;;
51800;SDS011;37855;53.204;6.568;2022-10-31T19:06:37;43.95;;;27.77;;
51800;SDS011;37855;53.204;6.568;2022-10-31T19:09:04;44.00;;;27.95;;
51800;SDS011;37855;53.204;6.568;2022-10-31T19:11:36;50.80;;;29.40;;
51800;SDS011;37855;53.204;6.568;2022-10-31T19:14:05;53.53;;;30.70;;
51800;SDS011;37855;53.204;6.568;2022-10-31T19:16:53;47.47;;;29.67;;
51800;SDS011;37855;53.204;6.568;2022-10-31T19:19:19;46.80;;;29.13;;
51800;SDS011;37855;53.204;6.568;2022-10-31T19:21:46;55.60;;;30.75;;
51800;SDS011;37855;53.204;6.568;2022-10-31T19:24:16;52.05;;;30.88;;
51800;SDS011;37855;53.204;6.568;2022-10-31T19:26:43;49.80;;;30.98;;
51800;SDS011;37855;53.204;6.568;2022-10-31T19:29:13;52.75;;;32.30;;
51800;SDS011;37855;53.204;6.568;2022-10-31T19:31:49;56.50;;;30.58;;
51800;SDS011;37855;53.204;6.568;2022-10-31T19:34:18;56.70;;;31.20;;
51800;SDS011;37855;53.204;6.568;2022-10-31T19:36:44;54.67;;;31.90;;
51800;SDS011;37855;53.204;6.568;2022-10-31T19:39:10;49.80;;;30.42;;
51800;SDS011;37855;53.204;6.568;2022-10-31T19:41:35;50.85;;;32.33;;
51800;SDS011;37855;53.204;6.568;2022-10-31T19:44:04;52.00;;;31.48;;
51800;SDS011;37855;53.204;6.568;2022-10-31T19:46:39;55.30;;;32.38;;
51800;SDS011;37855;53.204;6.568;2022-10-31T19:49:09;57.47;;;34.90;;
51800;SDS011;37855;53.204;6.568;2022-10-31T19:51:37;56.90;;;34.10;;
51800;SDS011;37855;53.204;6.568;2022-10-31T19:54:03;60.53;;;34.42;;
51800;SDS011;37855;53.204;6.568;2022-10-31T19:56:30;60.92;;;34.92;;
51800;SDS011;37855;53.204;6.568;2022-10-31T19:58:56;60.08;;;35.35;;
51800;SDS011;37855;53.204;6.568;2022-10-31T20:01:32;58.60;;;35.70;;
51800;SDS011;37855;53.204;6.568;2022-10-31T20:03:58;59.00;;;35.67;;
51800;SDS011;37855;53.204;6.568;2022-10-31T20:08:51;66.72;;;37.25;;
51800;SDS011;37855;53.204;6.568;2022-10-31T20:11:17;67.65;;;37.72;;
51800;SDS011;37855;53.204;6.568;2022-10-31T20:13:43;62.83;;;35.97;;
51800;SDS011;37855;53.204;6.568;2022-10-31T20:16:11;65.10;;;37.38;;
51800;SDS011;37855;53.204;6.568;2022-10-31T20:18:38;67.40;;;37.47;;
51800;SDS011;37855;53.204;6.568;2022-10-31T20:21:20;65.90;;;38.30;;
51800;SDS011;37855;53.204;6.568;2022-10-31T20:24:00;71.68;;;36.63;;
51800;SDS011;37855;53.204;6.568;2022-10-31T20:26:38;66.35;;;37.20;;
51800;SDS011;37855;53.204;6.568;2022-10-31T20:29:11;63.40;;;37.53;;
51800;SDS011;37855;53.204;6.568;2022-10-31T20:31:40;73.30;;;39.30;;
51800;SDS011;37855;53.204;6.568;2022-10-31T20:34:12;64.30;;;38.65;;
51800;SDS011;37855;53.204;6.568;2022-10-31T20:36:41;67.38;;;37.92;;
51800;SDS011;37855;53.204;6.568;2022-10-31T20:39:10;63.38;;;38.92;;
51800;SDS011;37855;53.204;6.568;2022-10-31T20:41:36;72.32;;;38.63;;
51800;SDS011;37855;53.204;6.568;2022-10-31T20:44:07;78.45;;;40.60;;
51800;SDS011;37855;53.204;6.568;2022-10-31T20:46:32;70.32;;;38.40;;
51800;SDS011;37855;53.204;6.568;2022-10-31T20:49:00;67.95;;;41.13;;
51800;SDS011;37855;53.204;6.568;2022-10-31T20:51:26;69.40;;;39.58;;
51800;SDS011;37855;53.204;6.568;2022-10-31T20:53:53;77.30;;;41.45;;
51800;SDS011;37855;53.204;6.568;2022-10-31T20:56:21;76.25;;;42.13;;
51800;SDS011;37855;53.204;6.568;2022-10-31T20:58:54;73.43;;;41.47;;
51800;SDS011;37855;53.204;6.568;2022-10-31T21:01:36;76.60;;;41.17;;
51800;SDS011;37855;53.204;6.568;2022-10-31T21:04:06;73.53;;;40.38;;
51800;SDS011;37855;53.204;6.568;2022-10-31T21:06:36;79.88;;;41.85;;
51800;SDS011;37855;53.204;6.568;2022-10-31T21:09:20;78.40;;;40.63;;
51800;SDS011;37855;53.204;6.568;2022-10-31T21:11:47;71.72;;;39.47;;
51800;SDS011;37855;53.204;6.568;2022-10-31T21:14:13;78.13;;;39.10;;
51800;SDS011;37855;53.204;6.568;2022-10-31T21:16:41;73.97;;;39.50;;
51800;SDS011;37855;53.204;6.568;2022-10-31T21:19:06;65.32;;;38.03;;
51800;SDS011;37855;53.204;6.568;2022-10-31T21:21:34;70.13;;;38.45;;
51800;SDS011;37855;53.204;6.568;2022-10-31T21:24:04;77.22;;;39.58;;
51800;SDS011;37855;53.204;6.568;2022-10-31T21:26:37;65.40;;;37.95;;
51800;SDS011;37855;53.204;6.568;2022-10-31T21:29:04;66.85;;;37.92;;
51800;SDS011;37855;53.204;6.568;2022-10-31T21:31:30;70.97;;;38.42;;
51800;SDS011;37855;53.204;6.568;2022-10-31T21:33:57;63.20;;;38.50;;
51800;SDS011;37855;53.204;6.568;2022-10-31T21:36:23;67.22;;;38.20;;
51800;SDS011;37855;53.204;6.568;2022-10-31T21:38:54;72.35;;;37.83;;
51800;SDS011;37855;53.204;6.568;2022-10-31T21:41:20;68.25;;;36.47;;
51800;SDS011;37855;53.204;6.568;2022-10-31T21:43:47;63.50;;;36.25;;
51800;SDS011;37855;53.204;6.568;2022-10-31T21:46:18;67.13;;;37.05;;
51800;SDS011;37855;53.204;6.568;2022-10-31T21:48:47;72.28;;;37.17;;
51800;SDS011;37855;53.204;6.568;2022-10-31T21:53:44;66.20;;;36.05;;
51800;SDS011;37855;53.204;6.568;2022-10-31T21:56:31;65.35;;;34.75;;
51800;SDS011;37855;53.204;6.568;2022-10-31T21:58:57;62.30;;;35.58;;
51800;SDS011;37855;53.204;6.568;2022-10-31T22:01:28;62.55;;;35.08;;
51800;SDS011;37855;53.204;6.568;2022-10-31T22:03:54;62.60;;;33.78;;
51800;SDS011;37855;53.204;6.568;2022-10-31T22:06:26;61.13;;;33.67;;
51800;SDS011;37855;53.204;6.568;2022-10-31T22:08:56;59.92;;;33.67;;
51800;SDS011;37855;53.204;6.568;2022-10-31T22:11:23;57.50;;;31.92;;
51800;SDS011;37855;53.204;6.568;2022-10-31T22:14:04;55.33;;;30.95;;
51800;SDS011;37855;53.204;6.568;2022-10-31T22:19:33;59.55;;;31.02;;
51800;SDS011;37855;53.204;6.568;2022-10-31T22:21:59;50.08;;;29.88;;
51800;SDS011;37855;53.204;6.568;2022-10-31T22:24:24;54.50;;;29.50;;
51800;SDS011;37855;53.204;6.568;2022-10-31T22:26:51;50.05;;;28.48;;
51800;SDS011;37855;53.204;6.568;2022-10-31T22:29:25;51.13;;;28.25;;
51800;SDS011;37855;53.204;6.568;2022-10-31T22:32:08;53.33;;;27.70;;
51800;SDS011;37855;53.204;6.568;2022-10-31T22:34:42;49.90;;;28.88;;
51800;SDS011;37855;53.204;6.568;2022-10-31T22:37:14;54.60;;;27.70;;
51800;SDS011;37855;53.204;6.568;2022-10-31T22:39:43;42.95;;;26.55;;
51800;SDS011;37855;53.204;6.568;2022-10-31T22:42:13;47.67;;;25.23;;
51800;SDS011;37855;53.204;6.568;2022-10-31T22:44:39;47.83;;;25.35;;
51800;SDS011;37855;53.204;6.568;2022-10-31T22:47:05;46.65;;;24.95;;
51800;SDS011;37855;53.204;6.568;2022-10-31T22:49:30;43.58;;;24.13;;
51800;SDS011;37855;53.204;6.568;2022-10-31T22:51:56;45.13;;;23.92;;
51800;SDS011;37855;53.204;6.568;2022-10-31T22:54:29;44.35;;;23.52;;
51800;SDS011;37855;53.204;6.568;2022-10-31T22:56:58;45.92;;;23.98;;
51800;SDS011;37855;53.204;6.568;2022-10-31T23:02:23;40.85;;;23.38;;
51800;SDS011;37855;53.204;6.568;2022-10-31T23:05:05;41.08;;;22.35;;
51800;SDS011;37855;53.204;6.568;2022-10-31T23:07:31;34.42;;;21.33;;
51800;SDS011;37855;53.204;6.568;2022-10-31T23:10:12;40.42;;;22.17;;
51800;SDS011;37855;53.204;6.568;2022-10-31T23:13:05;42.17;;;21.63;;
51800;SDS011;37855;53.204;6.568;2022-10-31T23:16:05;36.67;;;22.67;;
51800;SDS011;37855;53.204;6.568;2022-10-31T23:18:32;39.78;;;20.85;;
51800;SDS011;37855;53.204;6.568;2022-10-31T23:21:08;42.05;;;22.17;;
51800;SDS011;37855;53.204;6.568;2022-10-31T23:24:03;37.58;;;21.45;;
51800;SDS011;37855;53.204;6.568;2022-10-31T23:26:31;40.03;;;21.38;;
51800;SDS011;37855;53.204;6.568;2022-10-31T23:29:17;31.65;;;19.38;;
51800;SDS011;37855;53.204;6.568;2022-10-31T23:31:45;31.50;;;19.77;;
51800;SDS011;37855;53.204;6.568;2022-10-31T23:34:12;34.40;;;20.08;;
51800;SDS011;37855;53.204;6.568;2022-10-31T23:36:40;40.47;;;20.48;;
51800;SDS011;37855;53.204;6.568;2022-10-31T23:39:09;36.90;;;20.35;;
51800;SDS011;37855;53.204;6.568;2022-10-31T23:41:34;38.15;;;20.75;;
51800;SDS011;37855;53.204;6.568;2022-10-31T23:44:00;33.15;;;19.67;;
51800;SDS011;37855;53.204;6.568;2022-10-31T23:46:29;31.73;;;18.95;;
51800;SDS011;37855;53.204;6.568;2022-10-31T23:48:55;32.30;;;19.30;;
51800;SDS011;37855;53.204;6.568;2022-10-31T23:51:21;35.08;;;20.02;;
51800;SDS011;37855;53.204;6.568;2022-10-31T23:53:49;32.22;;;17.98;;
51800;SDS011;37855;53.204;6.568;2022-10-31T23:56:15;30.83;;;18.20;;
51800;SDS011;37855;53.204;6.568;2022-10-31T23:58:50;32.80;;;19.27;;
